Wednesday, September 03, 2014
07:09 UTC
  |  Log In   |  Register Free
Airport Search:

Pedro Bay Airport
(4K0)

Pedro Bay Airport Diagram
No Airport Diagram Available

FAA data valid effective July 24, 2014 until September 18, 2014 (unless otherwise noted).

 
 
 
 
 
 
 
 
 
 
 
 
 
 

Current Aviation Weather for Pedro Bay Airport (4K0)

The most recent METAR observation for PAIL was updated at: 0600 UTC
METAR Summary (Translated METAR)
PAIL
030600Z 23009G18KT 10SM SCT012 BKN028 13/11 A3005 RMK AO2 T01280111
PAIG
(39.7 nm SW from PAIL)
030608Z AUTO 20009KT 5SM BR FEW004 SCT025 OVC030 11/11 A3005 RMK AO2 TSNO $
TAF Summary (Translated TAF)
PAIL
030539Z 0306/0406 23012KT P6SM VCSH SCT015 BKN035 FM031400 VRB04KT P6SM VCSH SCT020 BKN045 FM032200 VRB06KT P6SM SCT025 BKN060
  Airport Weather Conditions for 4K0

Current weather conditions are
not available for 4K0


The nearest NOAA weather station
is at ILI, (23.7 nm SW from 4K0)
  
 Current Weather at ILI
55° F
Mostly Cloudy
Southwest winds at 13.8 mph
ILI NOAA Radar

Pressure: 30.04 in
Humidity: 90%
Wind: from the Southwest at 13.8 gusting to 19.6 MPH (12 gusting to 17 KT)
Dew Point: 52.0°F
Visibility: 10.00 mi


Airport Weather Forecast for 4K0

Translated METAR and TAF for PAIL
Translated METAR for PAIL (0703 UTC 03 September 2014)
found at http://aviationweather.gov/adds/metars/
 
METAR text: PAIL 030653Z 24012KT 10SM SCT012 BKN019 OVC028 12/11 A3005 RMK AO2 SLP177 T01220106
Conditions at: PAIL (ILIAMNA , AK, US) observed 0653 UTC 03 September 2014
Temperature: 12.2°C (54°F)
Dewpoint: 10.6°C (51°F) [RH = 90%]
Pressure (altimeter): 30.05 inches Hg (1017.7 mb)
[Sea-level pressure: 1017.7 mb]
Winds: from the WSW (240 degrees) at 14 MPH (12 knots; 6.2 m/s)
Visibility: 10 or more miles (16+ km)
Ceiling: 1900 feet AGL
Clouds: scattered clouds at 1200 feet AGL
broken clouds at 1900 feet AGL
overcast cloud deck at 2800 feet AGL
Weather: no significant weather observed at this time
Translated TAF for PAIL
Forecast for: PAIL (ILIAMNA , AK, US)
TAF Text: PAIL 030659Z 0307/0406 23012KT P6SM VCSH SCT012 BKN020 OVC035
Forecast period: 0700 to 1400 UTC 03 September 2014
Forecast type: FROM: standard forecast or significant change
Winds: from the SW (230 degrees) at 14 MPH (12 knots; 6.2 m/s)
Visibility: 6 or more miles (10+ km)
Ceiling: 2000 feet AGL
Clouds: scattered clouds at 1200 feet AGL
broken clouds at 2000 feet AGL
overcast cloud deck at 3500 feet AGL
Weather: VCSH  (showers in vicinity)
TAF Text: FM031400 VRB04KT P6SM VCSH SCT020 BKN045
Forecast period: 1400 to 2200 UTC 03 September 2014
Forecast type: FROM: standard forecast or significant change
Winds: variable direction winds at 5 MPH (4 knots; 2.1 m/s)
Visibility: 6 or more miles (10+ km)
Ceiling: 4500 feet AGL
Clouds: scattered clouds at 2000 feet AGL
broken clouds at 4500 feet AGL
Weather: VCSH  (showers in vicinity)
TAF Text: FM032200 VRB06KT P6SM SCT025 BKN060
Forecast period: 2200 UTC 03 September 2014 to 0600 UTC 04 September 2014
Forecast type: FROM: standard forecast or significant change
Winds: variable direction winds at 7 MPH (6 knots; 3.1 m/s)
Visibility: 6 or more miles (10+ km)
Ceiling: 6000 feet AGL
Clouds: scattered clouds at 2500 feet AGL
broken clouds at 6000 feet AGL
Weather: no significant weather forecast for this period

Find All Airport Services Find A Hotel Find A Rental Car Find A Golf Course Find A Restaurant $100 Hamburger



FBO's on the Field
FBO Company Facility Photos Services Transportation Aviation Fuel Prices: Prices include tax
Catering Weather Repair Courtesy Rental Type 100LL JetA JetA+ MOGAS 8087
 
Add another FBO Facility Photos Catering Weather Repair Courtesy Rental Type 100LL JetA JetA+ MOGAS 8087
Services Transportation Aviation Fuel Prices: Prices include tax
There are no FBO's currently reporting fuel at 4K0. List your FBO now


GlobalAir.com Airport Resource Center model-print
model-print
model-print
model-print